createdAt,value
2018-12-15T00:00:21.068Z,26.33
2018-12-15T00:02:51.096Z,26.97
2018-12-15T00:05:21.143Z,26.17
2018-12-15T00:07:49.172Z,27.17
2018-12-15T00:10:17.211Z,26.37
2018-12-15T00:12:45.217Z,27.23
2018-12-15T00:15:13.208Z,26.63
2018-12-15T00:17:41.172Z,26.80
2018-12-15T00:20:09.466Z,26.03
2018-12-15T00:22:37.559Z,27.17
2018-12-15T00:25:05.612Z,26.67
2018-12-15T00:27:33.648Z,25.77
2018-12-15T00:30:01.672Z,26.67
2018-12-15T00:32:29.667Z,25.77
2018-12-15T00:34:57.685Z,25.83
2018-12-15T00:37:25.669Z,26.17
2018-12-15T00:39:55.711Z,28.13
2018-12-15T00:42:33.391Z,25.57
2018-12-15T00:45:01.364Z,26.90
2018-12-15T00:47:29.390Z,26.97
2018-12-15T00:49:57.401Z,25.53
2018-12-15T00:52:25.371Z,25.33
2018-12-15T00:55:10.277Z,25.17
2018-12-15T00:57:38.249Z,25.67
2018-12-15T01:00:06.651Z,26.30
2018-12-15T01:02:35.706Z,26.93
2018-12-15T01:05:05.529Z,25.63
2018-12-15T01:07:33.510Z,26.37
2018-12-15T01:10:01.521Z,25.90
2018-12-15T01:12:29.553Z,26.87
2018-12-15T01:14:57.849Z,24.43
2018-12-15T01:17:25.905Z,26.87
2018-12-15T01:19:53.884Z,27.03
2018-12-15T01:22:21.876Z,26.20
2018-12-15T01:24:49.889Z,26.07
2018-12-15T01:27:18.013Z,26.47
2018-12-15T01:29:45.982Z,26.53
2018-12-15T01:32:13.984Z,26.17
2018-12-15T01:34:41.976Z,26.57
2018-12-15T01:37:09.923Z,26.93
2018-12-15T01:39:38.691Z,25.93
2018-12-15T01:42:06.710Z,26.03
2018-12-15T01:44:34.717Z,27.77
2018-12-15T01:47:02.717Z,27.43
2018-12-15T01:49:30.675Z,26.57
2018-12-15T01:51:58.656Z,26.93
2018-12-15T01:54:26.674Z,27.10
2018-12-15T01:56:54.707Z,26.00
2018-12-15T01:59:22.690Z,27.13
2018-12-15T02:01:50.681Z,27.60
2018-12-15T02:04:18.646Z,26.93
2018-12-15T02:06:46.646Z,27.90
2018-12-15T02:09:15.049Z,27.20
2018-12-15T02:11:44.848Z,27.53
2018-12-15T02:14:12.844Z,27.53
2018-12-15T02:16:40.872Z,27.40
2018-12-15T02:19:08.827Z,27.23
2018-12-15T02:21:36.801Z,28.33
2018-12-15T02:24:04.796Z,27.50
2018-12-15T02:26:32.762Z,28.37
2018-12-15T02:29:01.317Z,27.10
2018-12-15T02:31:29.327Z,27.27
2018-12-15T02:33:57.311Z,28.13
2018-12-15T02:36:25.280Z,28.57
2018-12-15T02:38:53.579Z,28.00
2018-12-15T02:41:21.568Z,27.70
2018-12-15T02:43:49.574Z,28.13
2018-12-15T02:46:17.540Z,26.83
2018-12-15T02:48:45.546Z,26.40
2018-12-15T02:51:13.487Z,28.27
2018-12-15T02:53:41.463Z,27.10
2018-12-15T02:56:09.417Z,27.80
2018-12-15T02:58:37.393Z,28.47
2018-12-15T03:01:05.415Z,28.90
2018-12-15T03:03:33.379Z,28.27
2018-12-15T03:06:01.377Z,28.17
2018-12-15T03:08:29.410Z,28.57
2018-12-15T03:10:57.370Z,27.00
2018-12-15T03:13:25.346Z,27.60
2018-12-15T03:15:53.357Z,28.20
2018-12-15T03:18:21.328Z,28.33
2018-12-15T03:20:59.745Z,28.57
2018-12-15T03:23:27.841Z,27.47
2018-12-15T03:25:56.004Z,27.20
2018-12-15T03:28:24.283Z,26.70
2018-12-15T03:30:52.242Z,28.17
2018-12-15T03:33:20.214Z,26.47
2018-12-15T03:35:48.224Z,28.07
2018-12-15T03:38:16.211Z,27.30
2018-12-15T03:40:44.198Z,28.10
2018-12-15T03:43:12.217Z,27.73
2018-12-15T03:45:40.736Z,28.27
2018-12-15T03:48:08.742Z,26.97
2018-12-15T03:50:36.732Z,28.67
2018-12-15T03:53:04.787Z,28.53
2018-12-15T03:55:32.749Z,28.23
2018-12-15T03:58:00.766Z,28.87
2018-12-15T04:00:28.783Z,28.63
2018-12-15T04:02:56.766Z,27.87
2018-12-15T04:05:24.777Z,27.67
2018-12-15T04:07:52.742Z,28.23
2018-12-15T04:10:20.725Z,27.90
2018-12-15T04:12:48.702Z,28.13
2018-12-15T04:15:16.673Z,27.73
2018-12-15T04:17:44.644Z,27.63
2018-12-15T04:20:12.609Z,27.80
2018-12-15T04:22:40.615Z,28.20
2018-12-15T04:25:08.636Z,26.97
2018-12-15T04:27:36.659Z,29.07
2018-12-15T04:30:07.950Z,28.77
2018-12-15T04:32:36.599Z,28.03
2018-12-15T04:35:04.887Z,29.57
2018-12-15T04:37:32.882Z,28.37
2018-12-15T04:40:00.928Z,28.73
2018-12-15T04:42:28.925Z,28.20
2018-12-15T04:44:56.929Z,28.23
2018-12-15T04:47:24.928Z,27.70
2018-12-15T04:49:52.881Z,27.63
2018-12-15T04:52:20.882Z,28.73
2018-12-15T04:54:48.876Z,29.73
2018-12-15T04:57:16.886Z,29.20
2018-12-15T04:59:44.964Z,30.00
2018-12-15T05:02:12.974Z,27.80
2018-12-15T05:04:40.926Z,28.40
2018-12-15T05:07:08.886Z,28.77
2018-12-15T05:09:36.884Z,29.30
2018-12-15T05:12:04.846Z,28.87
2018-12-15T05:14:32.815Z,28.30
2018-12-15T05:17:00.822Z,28.40
2018-12-15T05:19:28.802Z,29.50
2018-12-15T05:21:56.977Z,29.30
2018-12-15T05:24:24.942Z,29.03
2018-12-15T05:26:52.912Z,30.00
2018-12-15T05:29:20.926Z,29.67
2018-12-15T05:31:48.938Z,30.30
2018-12-15T05:34:16.903Z,28.90
2018-12-15T05:36:44.877Z,28.33
2018-12-15T05:39:12.882Z,28.00
2018-12-15T05:41:40.860Z,30.20
2018-12-15T05:44:08.907Z,30.90
2018-12-15T05:46:37.048Z,29.27
2018-12-15T05:49:05.025Z,30.07
2018-12-15T05:51:32.998Z,29.50
2018-12-15T05:54:01.025Z,28.87
2018-12-15T05:56:28.994Z,28.47
2018-12-15T05:58:57.076Z,29.70
2018-12-15T06:01:25.192Z,29.00
2018-12-15T06:03:53.160Z,29.93
2018-12-15T06:06:21.144Z,30.50
2018-12-15T06:08:49.122Z,29.27
2018-12-15T06:11:17.106Z,29.37
2018-12-15T06:13:45.101Z,29.53
2018-12-15T06:16:13.074Z,29.43
2018-12-15T06:18:41.038Z,29.33
2018-12-15T06:21:09.003Z,29.17
2018-12-15T06:23:37.012Z,28.53
2018-12-15T06:26:04.969Z,29.50
2018-12-15T06:28:32.961Z,29.67
2018-12-15T06:31:00.967Z,30.67
2018-12-15T06:33:29.009Z,30.10
2018-12-15T06:36:07.704Z,29.73
2018-12-15T06:38:45.350Z,30.00
2018-12-15T06:41:22.213Z,28.80
2018-12-15T06:43:59.429Z,29.77
2018-12-15T06:46:39.494Z,29.67
2018-12-15T06:49:15.598Z,29.60
2018-12-15T06:51:53.559Z,30.13
2018-12-15T06:54:32.805Z,28.83
2018-12-15T06:57:12.505Z,28.93
2018-12-15T06:59:41.884Z,30.23
2018-12-15T07:02:09.890Z,29.67
2018-12-15T07:04:38.595Z,31.87
2018-12-15T07:07:06.982Z,29.87
2018-12-15T07:09:34.952Z,31.70
2018-12-15T07:12:03.025Z,29.23
2018-12-15T07:14:31.050Z,30.57
2018-12-15T07:16:59.545Z,30.43
2018-12-15T07:19:28.052Z,30.63
2018-12-15T07:21:56.030Z,31.03
2018-12-15T07:24:24.084Z,30.07
2018-12-15T07:26:52.649Z,31.33
2018-12-15T07:29:20.643Z,30.20
2018-12-15T07:31:48.653Z,30.63
2018-12-15T07:34:23.125Z,30.27
2018-12-15T07:37:01.522Z,31.00
2018-12-15T07:39:37.755Z,30.30
2018-12-15T07:42:17.781Z,30.77
2018-12-15T07:44:57.419Z,30.37
2018-12-15T07:47:40.698Z,30.97
2018-12-15T07:50:20.201Z,30.27
2018-12-15T07:52:54.610Z,30.00
2018-12-15T07:55:32.020Z,29.47
2018-12-15T07:58:01.002Z,28.17
2018-12-15T08:00:28.991Z,29.47
2018-12-15T08:02:57.084Z,29.70
2018-12-15T08:05:25.051Z,29.07
2018-12-15T08:07:53.397Z,28.90
2018-12-15T08:10:23.827Z,28.63
2018-12-15T08:12:59.571Z,28.67
2018-12-15T08:15:28.849Z,29.07
2018-12-15T08:17:56.916Z,28.27
2018-12-15T08:20:24.937Z,28.50
2018-12-15T08:22:53.051Z,28.17
2018-12-15T08:25:21.091Z,28.53
2018-12-15T08:27:49.080Z,29.27
2018-12-15T08:30:17.070Z,27.83
2018-12-15T08:32:46.947Z,27.47
2018-12-15T08:35:26.554Z,27.30
2018-12-15T08:38:04.378Z,29.33
2018-12-15T08:40:43.319Z,27.90
2018-12-15T08:43:21.457Z,27.97
2018-12-15T08:46:01.107Z,28.23
2018-12-15T08:48:39.507Z,27.33
2018-12-15T08:51:15.733Z,27.13
2018-12-15T08:53:53.343Z,28.83
2018-12-15T08:56:33.407Z,27.60
2018-12-15T08:59:02.752Z,26.60
2018-12-15T09:01:30.724Z,28.93
2018-12-15T09:03:58.736Z,28.17
2018-12-15T09:06:26.766Z,27.13
2018-12-15T09:08:55.393Z,27.07
2018-12-15T09:11:24.052Z,25.17
2018-12-15T09:13:52.048Z,25.47
2018-12-15T09:16:26.218Z,25.83
2018-12-15T09:18:50.789Z,24.07
2018-12-15T09:21:19.615Z,23.47
2018-12-15T09:23:48.104Z,24.60
2018-12-15T09:26:16.827Z,23.43
2018-12-15T09:28:45.442Z,22.10
2018-12-15T09:31:14.160Z,20.77
2018-12-15T09:33:42.659Z,23.17
2018-12-15T09:36:21.973Z,21.83
2018-12-15T09:39:00.022Z,21.00
2018-12-15T09:41:39.793Z,21.20
2018-12-15T09:44:17.652Z,28.53
2018-12-15T09:47:00.440Z,23.93
2018-12-15T09:49:40.839Z,21.40
2018-12-15T09:52:18.523Z,22.57
2018-12-15T09:54:58.633Z,21.27
2018-12-15T09:57:33.964Z,22.37
2018-12-15T10:00:02.859Z,22.33
2018-12-15T10:02:32.599Z,25.20
2018-12-15T10:05:01.480Z,20.80
2018-12-15T10:07:30.716Z,23.33
2018-12-15T10:10:00.045Z,21.50
2018-12-15T10:12:29.395Z,19.73
2018-12-15T10:14:58.247Z,21.13
2018-12-15T10:17:26.950Z,20.13
2018-12-15T10:19:55.943Z,19.37
2018-12-15T10:22:24.752Z,18.93
2018-12-15T10:24:53.414Z,18.73
2018-12-15T10:27:22.158Z,19.27
2018-12-15T10:29:56.449Z,19.80
2018-12-15T10:32:30.652Z,22.03
2018-12-15T10:34:59.281Z,19.37
2018-12-15T10:37:28.163Z,19.30
2018-12-15T10:39:57.004Z,20.87
2018-12-15T10:42:27.148Z,19.13
2018-12-15T10:44:55.879Z,19.47
2018-12-15T10:47:24.432Z,19.27
2018-12-15T10:49:55.152Z,21.57
2018-12-15T10:52:25.717Z,20.00
2018-12-15T10:54:53.852Z,22.20
2018-12-15T10:57:23.209Z,20.43
2018-12-15T10:59:51.539Z,20.93
2018-12-15T11:02:20.563Z,19.27
2018-12-15T11:04:49.634Z,19.87
2018-12-15T11:07:17.934Z,19.30
2018-12-15T11:09:46.141Z,20.07
2018-12-15T11:12:14.574Z,19.97
2018-12-15T11:14:42.796Z,19.60
2018-12-15T11:17:11.428Z,19.60
2018-12-15T11:19:39.823Z,20.60
2018-12-15T11:22:08.505Z,19.13
2018-12-15T11:24:37.260Z,22.70
2018-12-15T11:27:05.937Z,20.53
2018-12-15T11:29:34.593Z,19.10
2018-12-15T11:32:03.692Z,18.23
2018-12-15T11:34:32.462Z,20.73
2018-12-15T11:37:01.552Z,20.90
2018-12-15T11:39:30.108Z,19.17
2018-12-15T11:41:58.746Z,19.53
2018-12-15T11:44:28.291Z,19.80
2018-12-15T11:46:56.605Z,20.37
2018-12-15T11:49:25.984Z,18.50
2018-12-15T11:51:54.747Z,18.33
2018-12-15T11:54:23.377Z,16.67
2018-12-15T11:56:52.773Z,17.03
2018-12-15T11:59:21.409Z,18.67
2018-12-15T12:01:50.672Z,17.50
2018-12-15T12:04:20.041Z,17.03
2018-12-15T12:06:49.601Z,17.47
2018-12-15T12:09:18.189Z,18.00
2018-12-15T12:11:46.944Z,17.07
2018-12-15T12:14:15.570Z,17.13
2018-12-15T12:16:44.313Z,21.57
2018-12-15T12:19:13.606Z,18.97
2018-12-15T12:21:42.257Z,18.30
2018-12-15T12:24:10.975Z,16.67
2018-12-15T12:26:41.797Z,17.00
2018-12-15T12:29:10.654Z,17.80
2018-12-15T12:31:39.348Z,17.83
2018-12-15T12:34:08.109Z,17.80
2018-12-15T12:36:36.846Z,16.73
2018-12-15T12:39:06.996Z,17.50
2018-12-15T12:41:38.030Z,20.60
2018-12-15T12:44:07.587Z,17.43
2018-12-15T12:46:36.786Z,18.83
2018-12-15T12:49:06.253Z,16.87
2018-12-15T12:51:35.006Z,17.33
2018-12-15T12:54:03.819Z,16.70
2018-12-15T12:56:32.650Z,22.07
2018-12-15T12:59:01.429Z,17.20
2018-12-15T13:01:30.149Z,15.43
2018-12-15T13:03:58.957Z,16.20
2018-12-15T13:06:28.343Z,17.13
2018-12-15T13:08:58.127Z,14.67
2018-12-15T13:11:26.957Z,17.30
2018-12-15T13:13:55.739Z,15.90
2018-12-15T13:16:24.506Z,17.27
2018-12-15T13:18:53.280Z,17.60
2018-12-15T13:21:22.052Z,22.67
2018-12-15T13:23:51.936Z,18.87
2018-12-15T13:26:20.793Z,15.43
2018-12-15T13:28:49.621Z,18.53
2018-12-15T13:31:18.470Z,17.67
2018-12-15T13:33:47.466Z,17.07
2018-12-15T13:36:18.763Z,20.07
2018-12-15T13:38:47.602Z,16.43
2018-12-15T13:41:17.606Z,20.20
2018-12-15T13:43:46.422Z,16.43
2018-12-15T13:46:15.952Z,17.07
2018-12-15T13:48:45.759Z,16.47
2018-12-15T13:51:23.240Z,15.80
2018-12-15T13:54:01.829Z,15.03
2018-12-15T13:56:39.227Z,14.40
2018-12-15T13:59:15.176Z,15.93
2018-12-15T14:01:45.372Z,14.63
2018-12-15T14:04:23.233Z,14.33
2018-12-15T14:06:58.849Z,13.73
2018-12-15T14:09:38.106Z,13.47
2018-12-15T14:12:15.045Z,11.87
2018-12-15T14:14:46.328Z,13.13
2018-12-15T14:17:15.189Z,11.97
2018-12-15T14:19:44.861Z,14.40
2018-12-15T14:22:15.005Z,12.00
2018-12-15T14:24:44.340Z,17.53
2018-12-15T14:27:13.824Z,14.07
2018-12-15T14:29:43.248Z,18.63
2018-12-15T14:32:12.790Z,13.67
2018-12-15T14:34:42.308Z,21.83
2018-12-15T14:37:11.595Z,15.67
2018-12-15T14:39:41.054Z,15.83
2018-12-15T14:42:10.636Z,13.83
2018-12-15T14:44:41.061Z,13.57
2018-12-15T14:47:17.971Z,21.73
2018-12-15T14:49:53.960Z,16.17
2018-12-15T14:52:35.459Z,16.30
2018-12-15T14:55:14.920Z,14.70
2018-12-15T14:57:52.722Z,16.10
2018-12-15T15:00:32.032Z,15.03
2018-12-15T15:03:14.068Z,16.37
2018-12-15T15:05:50.330Z,17.43
2018-12-15T15:08:27.299Z,17.57
2018-12-15T15:11:05.532Z,20.40
2018-12-15T15:13:47.459Z,14.77
2018-12-15T15:16:18.649Z,20.67
2018-12-15T15:18:48.158Z,17.60
2018-12-15T15:21:18.095Z,15.90
2018-12-15T15:23:47.550Z,15.43
2018-12-15T15:26:16.293Z,18.43
2018-12-15T15:29:48.545Z,14.53
2018-12-15T15:32:19.590Z,13.83
2018-12-15T15:34:48.381Z,14.47
2018-12-15T15:37:21.179Z,14.13
2018-12-15T15:39:50.001Z,18.00
2018-12-15T15:42:20.164Z,14.77
2018-12-15T15:44:48.913Z,15.70
2018-12-15T15:47:19.219Z,14.90
2018-12-15T15:49:47.932Z,14.67
2018-12-15T15:52:16.704Z,19.40
2018-12-15T15:54:45.479Z,13.80
2018-12-15T15:57:14.918Z,15.43
2018-12-15T15:59:43.908Z,15.60
2018-12-15T16:02:12.755Z,25.60
2018-12-15T16:04:42.738Z,22.43
2018-12-15T16:07:20.647Z,15.47
2018-12-15T16:09:59.383Z,21.63
2018-12-15T16:12:32.308Z,18.77
2018-12-15T16:15:09.195Z,19.43
2018-12-15T16:17:46.368Z,16.10
2018-12-15T16:20:27.103Z,14.43
2018-12-15T16:23:11.055Z,15.97
2018-12-15T16:25:47.926Z,20.60
2018-12-15T16:28:27.258Z,16.77
2018-12-15T16:30:57.381Z,15.93
2018-12-15T16:33:27.423Z,14.73
2018-12-15T16:35:57.255Z,18.67
2018-12-15T16:38:26.705Z,17.00
2018-12-15T16:40:57.498Z,27.67
2018-12-15T16:43:27.025Z,28.00
2018-12-15T16:45:56.620Z,20.10
2018-12-15T16:48:26.064Z,17.77
2018-12-15T16:50:56.951Z,24.80
2018-12-15T16:53:28.128Z,36.90
2018-12-15T16:55:56.986Z,20.87
2018-12-15T16:58:26.476Z,16.13
2018-12-15T17:00:56.183Z,29.27
2018-12-15T17:03:30.482Z,39.67
2018-12-15T17:05:57.096Z,36.13
2018-12-15T17:08:27.051Z,26.13
2018-12-15T17:10:58.110Z,44.17
2018-12-15T17:13:29.026Z,27.57
2018-12-15T17:15:58.737Z,18.20
2018-12-15T17:18:28.500Z,16.47
2018-12-15T17:20:58.266Z,27.13
2018-12-15T17:23:28.200Z,21.40
2018-12-15T17:25:58.860Z,23.27
2018-12-15T17:28:28.793Z,19.07
2018-12-15T17:30:58.793Z,21.23
2018-12-15T17:33:29.564Z,20.27
2018-12-15T17:35:59.111Z,25.83
2018-12-15T17:38:28.958Z,21.60
2018-12-15T17:40:58.770Z,25.67
2018-12-15T17:43:29.321Z,19.63
2018-12-15T17:45:59.013Z,22.80
2018-12-15T17:48:28.925Z,28.63
2018-12-15T17:51:03.236Z,20.93
2018-12-15T17:53:28.650Z,22.17
2018-12-15T17:55:58.442Z,20.27
2018-12-15T17:58:29.423Z,18.90
2018-12-15T18:01:00.328Z,23.77
2018-12-15T18:03:31.344Z,22.07
2018-12-15T18:06:02.759Z,19.37
2018-12-15T18:08:32.547Z,18.00
2018-12-15T18:11:02.016Z,16.63
2018-12-15T18:13:31.984Z,19.37
2018-12-15T18:16:01.779Z,17.30
2018-12-15T18:18:31.336Z,16.07
2018-12-15T18:21:01.501Z,16.77
2018-12-15T18:23:33.747Z,9.93
2018-12-15T18:26:04.190Z,6.53
2018-12-15T18:28:34.648Z,5.53
2018-12-15T18:31:05.037Z,6.53
2018-12-15T18:33:37.121Z,5.37
2018-12-15T18:36:09.435Z,4.87
2018-12-15T18:38:40.066Z,5.30
2018-12-15T18:41:10.031Z,5.10
2018-12-15T18:43:40.137Z,5.23
2018-12-15T18:46:10.205Z,5.17
2018-12-15T18:48:39.724Z,5.50
2018-12-15T18:51:16.343Z,6.40
2018-12-15T18:53:44.498Z,5.63
2018-12-15T18:56:14.146Z,5.50
2018-12-15T18:58:44.830Z,5.53
2018-12-15T19:01:16.063Z,5.70
2018-12-15T19:03:45.948Z,5.27
2018-12-15T19:06:15.541Z,5.93
2018-12-15T19:08:45.447Z,5.53
2018-12-15T19:11:16.893Z,5.50
2018-12-15T19:13:46.476Z,6.20
2018-12-15T19:16:16.313Z,5.97
2018-12-15T19:18:46.120Z,5.97
2018-12-15T19:21:22.912Z,6.47
2018-12-15T19:23:50.053Z,6.60
2018-12-15T19:26:20.152Z,6.67
2018-12-15T19:28:50.668Z,6.23
2018-12-15T19:31:20.184Z,6.83
2018-12-15T19:33:50.748Z,6.90
2018-12-15T19:36:20.678Z,6.97
2018-12-15T19:38:50.515Z,7.80
2018-12-15T19:41:20.654Z,7.80
2018-12-15T19:43:51.019Z,6.97
2018-12-15T19:46:21.278Z,7.07
2018-12-15T19:48:51.285Z,6.10
2018-12-15T19:51:21.050Z,7.50
2018-12-15T19:53:51.392Z,5.73
2018-12-15T19:56:20.178Z,5.93
2018-12-15T19:58:49.041Z,6.37
2018-12-15T20:01:18.712Z,5.47
2018-12-15T20:03:47.926Z,5.43
2018-12-15T20:06:16.877Z,6.07
2018-12-15T20:08:46.693Z,5.13
2018-12-15T20:11:16.709Z,5.90
2018-12-15T20:13:46.272Z,6.90
2018-12-15T20:16:15.745Z,7.03
2018-12-15T20:18:45.544Z,6.07
2018-12-15T20:21:14.952Z,7.50
2018-12-15T20:23:43.789Z,6.10
2018-12-15T20:26:12.803Z,5.83
2018-12-15T20:28:41.634Z,5.90
2018-12-15T20:31:11.456Z,6.27
2018-12-15T20:33:44.362Z,5.33
2018-12-15T20:36:14.305Z,4.33
2018-12-15T20:38:43.870Z,5.23
2018-12-15T20:41:13.229Z,5.60
2018-12-15T20:43:42.905Z,5.47
2018-12-15T20:46:13.658Z,5.27
2018-12-15T20:48:43.517Z,6.00
2018-12-15T20:51:12.885Z,7.17
2018-12-15T20:53:43.009Z,11.10
2018-12-15T20:56:12.274Z,8.97
2018-12-15T20:58:41.740Z,7.60
2018-12-15T21:01:11.173Z,8.27
2018-12-15T21:03:40.877Z,7.00
2018-12-15T21:06:10.305Z,7.33
2018-12-15T21:08:40.481Z,6.87
2018-12-15T21:11:11.049Z,5.83
2018-12-15T21:13:42.014Z,10.37
2018-12-15T21:16:11.473Z,6.60
2018-12-15T21:18:40.945Z,9.73
2018-12-15T21:21:10.381Z,14.60
2018-12-15T21:23:40.397Z,12.40
2018-12-15T21:26:10.014Z,6.60
2018-12-15T21:28:39.792Z,6.90
2018-12-15T21:31:08.449Z,8.50
2018-12-15T21:33:37.231Z,8.90
2018-12-15T21:36:05.956Z,10.03
2018-12-15T21:38:35.783Z,11.73
2018-12-15T21:41:05.524Z,8.73
2018-12-15T21:43:35.121Z,6.67
2018-12-15T21:46:04.811Z,6.00
2018-12-15T21:48:36.499Z,5.63
2018-12-15T21:51:05.951Z,5.93
2018-12-15T21:53:35.125Z,5.27
2018-12-15T21:56:04.784Z,5.20
2018-12-15T21:58:33.857Z,5.97
2018-12-15T22:01:04.271Z,5.30
2018-12-15T22:03:33.252Z,5.03
2018-12-15T22:06:02.667Z,5.50
2018-12-15T22:08:31.963Z,4.83
2018-12-15T22:11:00.944Z,5.40
2018-12-15T22:13:30.177Z,5.30
2018-12-15T22:15:58.995Z,4.73
2018-12-15T22:18:28.193Z,4.57
2018-12-15T22:20:57.259Z,4.80
2018-12-15T22:23:26.064Z,4.67
2018-12-15T22:26:00.273Z,5.10
2018-12-15T22:28:28.951Z,5.30
2018-12-15T22:30:57.620Z,5.20
2018-12-15T22:33:26.341Z,5.07
2018-12-15T22:35:55.006Z,5.53
2018-12-15T22:38:23.717Z,4.93
2018-12-15T22:40:52.661Z,5.23
2018-12-15T22:43:21.369Z,4.80
2018-12-15T22:45:49.980Z,5.00
2018-12-15T22:48:18.662Z,5.73
2018-12-15T22:50:48.813Z,5.20
2018-12-15T22:53:17.446Z,5.73
2018-12-15T22:55:46.148Z,4.67
2018-12-15T22:58:14.642Z,5.67
2018-12-15T23:00:49.132Z,4.93
2018-12-15T23:03:19.768Z,5.20
2018-12-15T23:05:48.229Z,4.70
2018-12-15T23:08:17.826Z,5.10
2018-12-15T23:10:46.647Z,4.87
2018-12-15T23:13:15.328Z,6.00
2018-12-15T23:15:44.054Z,4.87
2018-12-15T23:18:12.690Z,5.63
2018-12-15T23:20:41.581Z,5.40
2018-12-15T23:23:10.289Z,5.43
2018-12-15T23:25:38.766Z,5.40
2018-12-15T23:28:07.437Z,5.73
2018-12-15T23:30:35.942Z,5.87
2018-12-15T23:33:04.875Z,5.87
2018-12-15T23:35:33.707Z,6.00
2018-12-15T23:38:02.430Z,7.40
2018-12-15T23:40:32.091Z,6.80
2018-12-15T23:43:00.810Z,6.43
2018-12-15T23:45:29.282Z,7.00
2018-12-15T23:47:57.719Z,6.87
2018-12-15T23:50:27.615Z,6.87
2018-12-15T23:52:56.580Z,7.77
2018-12-15T23:55:25.235Z,8.37
2018-12-15T23:57:53.733Z,8.30
